createdAt,value
2022-07-28T00:00:12.840Z,68664.53
2022-07-28T00:02:40.054Z,68661.09
2022-07-28T00:05:08.046Z,68664.31
2022-07-28T00:07:35.653Z,68665.28
2022-07-28T00:10:03.287Z,68671.53
2022-07-28T00:12:30.463Z,68660.34
2022-07-28T00:14:57.626Z,68673.22
2022-07-28T00:17:25.118Z,68671.34
2022-07-28T00:19:52.315Z,68662.06
2022-07-28T00:22:19.521Z,68651.22
2022-07-28T00:24:46.648Z,68636.28
2022-07-28T00:27:19.199Z,68626.25
2022-07-28T00:29:50.193Z,68614.31
2022-07-28T00:32:21.041Z,68637.81
2022-07-28T00:34:48.627Z,68639.88
2022-07-28T00:37:15.843Z,68643.50
2022-07-28T00:39:43.923Z,68638.75
2022-07-28T00:42:12.302Z,68638.00
2022-07-28T00:44:41.998Z,68642.56
2022-07-28T00:47:09.725Z,68631.75
2022-07-28T00:49:37.004Z,68633.06
2022-07-28T00:52:05.849Z,68645.22
2022-07-28T00:54:34.250Z,68628.72
2022-07-28T00:57:01.771Z,68616.97
2022-07-28T00:59:28.985Z,68619.06
2022-07-28T01:01:56.608Z,68611.88
2022-07-28T01:04:25.177Z,68616.78
2022-07-28T01:07:11.024Z,68598.81
2022-07-28T01:09:51.472Z,68597.28
2022-07-28T01:12:50.603Z,68607.31
2022-07-28T01:15:40.959Z,68602.03
2022-07-28T01:18:20.359Z,68607.34
2022-07-28T01:20:52.531Z,68586.69
2022-07-28T01:23:32.099Z,68573.06
2022-07-28T01:26:41.969Z,68574.22
2022-07-28T01:29:50.164Z,68568.69
2022-07-28T01:32:20.884Z,68568.69
2022-07-28T01:34:58.871Z,68565.88
2022-07-28T01:37:29.314Z,68552.41
2022-07-28T01:40:00.219Z,68545.81
2022-07-28T01:42:33.621Z,68529.72
2022-07-28T01:45:02.286Z,68547.13
2022-07-28T01:47:31.688Z,68552.44
2022-07-28T01:50:01.471Z,68531.25
2022-07-28T01:52:29.242Z,68520.09
2022-07-28T01:54:59.447Z,68517.63
2022-07-28T01:57:31.049Z,68511.94
2022-07-28T02:00:00.862Z,68508.34
2022-07-28T02:02:31.034Z,68500.56
2022-07-28T02:05:00.342Z,68498.13
2022-07-28T02:07:28.917Z,68498.69
2022-07-28T02:09:58.779Z,68490.19
2022-07-28T02:12:26.621Z,68499.06
2022-07-28T02:14:55.353Z,68494.16
2022-07-28T02:17:28.295Z,68470.88
2022-07-28T02:19:56.285Z,68477.13
2022-07-28T02:22:24.724Z,68475.97
2022-07-28T02:24:54.722Z,68469.56
2022-07-28T02:27:47.660Z,68454.81
2022-07-28T02:30:18.077Z,68456.69
2022-07-28T02:32:56.882Z,68437.59
2022-07-28T02:35:44.673Z,68437.59
2022-07-28T02:38:19.134Z,68426.25
2022-07-28T02:40:49.448Z,68398.09
2022-07-28T02:43:24.395Z,68407.16
2022-07-28T02:45:53.582Z,68383.91
2022-07-28T02:48:26.117Z,68361.59
2022-07-28T02:50:57.105Z,68351.22
2022-07-28T02:53:25.855Z,68377.28
2022-07-28T02:55:53.537Z,68360.84
2022-07-28T02:58:22.662Z,68351.78
2022-07-28T03:00:51.963Z,68336.09
2022-07-28T03:03:20.074Z,68337.59
2022-07-28T03:05:47.668Z,68325.88
2022-07-28T03:08:17.087Z,68321.91
2022-07-28T03:10:44.550Z,68340.06
2022-07-28T03:13:11.872Z,68363.69
2022-07-28T03:15:40.391Z,68354.63
2022-07-28T03:18:08.115Z,68344.78
2022-07-28T03:20:35.469Z,68332.69
2022-07-28T03:23:03.117Z,68327.56
2022-07-28T03:25:39.707Z,68330.63
2022-07-28T03:28:09.054Z,68322.09
2022-07-28T03:30:42.969Z,68320.19
2022-07-28T03:33:11.512Z,68321.13
2022-07-28T03:35:44.756Z,68313.59
2022-07-28T03:38:17.762Z,68320.97
2022-07-28T03:40:48.172Z,68334.19
2022-07-28T03:43:19.921Z,68328.13
2022-07-28T03:45:47.997Z,68319.25
2022-07-28T03:48:15.480Z,68340.25
2022-07-28T03:50:43.078Z,68339.31
2022-07-28T03:53:18.943Z,68331.00
2022-07-28T03:55:50.672Z,68325.47
2022-07-28T03:58:28.393Z,68331.00
2022-07-28T04:00:57.154Z,68326.81
2022-07-28T04:03:42.725Z,68303.94
2022-07-28T04:06:15.352Z,68315.84
2022-07-28T04:08:43.889Z,68326.25
2022-07-28T04:11:11.346Z,68307.91
2022-07-28T04:13:38.768Z,68341.56
2022-07-28T04:16:11.612Z,68336.09
2022-07-28T04:18:39.428Z,68331.34
2022-07-28T04:21:06.770Z,68323.59
2022-07-28T04:23:33.814Z,68313.97
2022-07-28T04:26:01.012Z,68330.22
2022-07-28T04:28:28.333Z,68324.16
2022-07-28T04:30:55.764Z,68323.78
2022-07-28T04:33:23.150Z,68338.16
2022-07-28T04:35:52.614Z,68335.16
2022-07-28T04:38:20.369Z,68346.88
2022-07-28T04:40:48.658Z,68353.47
2022-07-28T04:43:15.952Z,68351.59
2022-07-28T04:45:54.143Z,68365.00
2022-07-28T04:48:23.205Z,68385.22
2022-07-28T04:50:52.724Z,68379.00
2022-07-28T04:53:20.970Z,68386.75
2022-07-28T04:55:49.591Z,68391.47
2022-07-28T04:58:19.345Z,68416.59
2022-07-28T05:00:49.923Z,68423.22
2022-07-28T05:03:18.740Z,68430.22
2022-07-28T05:05:47.201Z,68452.16
2022-07-28T05:08:25.416Z,68469.91
2022-07-28T05:10:55.854Z,68482.41
2022-07-28T05:13:23.374Z,68516.13
2022-07-28T05:15:51.331Z,68505.50
2022-07-28T05:18:18.428Z,68538.25
2022-07-28T05:20:45.481Z,68547.88
2022-07-28T05:23:12.873Z,68568.34
2022-07-28T05:25:40.161Z,68588.97
2022-07-28T05:28:07.289Z,68579.88
2022-07-28T05:30:36.963Z,68580.63
2022-07-28T05:33:04.255Z,68600.69
2022-07-28T05:35:31.963Z,68629.25
2022-07-28T05:37:59.162Z,68671.53
2022-07-28T05:40:27.319Z,68698.44
2022-07-28T05:42:54.466Z,68732.50
2022-07-28T05:45:21.911Z,68756.59
2022-07-28T05:47:52.549Z,68762.66
2022-07-28T05:50:21.794Z,68763.78
2022-07-28T05:52:49.324Z,68764.38
2022-07-28T05:55:17.529Z,68742.38
2022-07-28T05:57:45.281Z,68743.13
2022-07-28T06:00:18.316Z,68728.53
2022-07-28T06:02:49.214Z,68738.03
2022-07-28T06:05:22.237Z,68780.84
2022-07-28T06:07:50.917Z,68816.13
2022-07-28T06:10:20.887Z,68860.47
2022-07-28T06:12:53.110Z,68895.59
2022-07-28T06:15:22.767Z,68929.00
2022-07-28T06:17:52.628Z,68924.59
2022-07-28T06:20:21.173Z,68940.72
2022-07-28T06:22:50.618Z,68935.63
2022-07-28T06:25:21.902Z,68909.41
2022-07-28T06:27:50.701Z,68905.25
2022-07-28T06:30:18.551Z,68921.75
2022-07-28T06:32:46.784Z,68954.41
2022-07-28T06:35:16.645Z,68966.56
2022-07-28T06:37:44.973Z,68994.09
2022-07-28T06:40:14.024Z,69011.34
2022-07-28T06:42:42.302Z,69007.16
2022-07-28T06:45:20.660Z,69011.91
2022-07-28T06:47:52.280Z,69018.75
2022-07-28T06:50:25.765Z,69015.53
2022-07-28T06:52:58.966Z,69009.06
2022-07-28T06:55:34.348Z,69002.78
2022-07-28T06:58:02.474Z,69013.25
2022-07-28T07:00:30.059Z,69040.38
2022-07-28T07:02:57.917Z,69067.75
2022-07-28T07:05:26.110Z,69094.91
2022-07-28T07:07:53.200Z,69133.28
2022-07-28T07:10:20.369Z,69160.63
2022-07-28T07:12:47.486Z,69171.31
2022-07-28T07:15:14.926Z,69190.28
2022-07-28T07:17:42.508Z,69209.69
2022-07-28T07:20:10.561Z,69221.25
2022-07-28T07:22:45.658Z,69225.09
2022-07-28T07:25:21.998Z,69222.63
2022-07-28T07:27:49.453Z,69209.28
2022-07-28T07:30:17.135Z,69219.19
2022-07-28T07:32:44.515Z,69231.50
2022-07-28T07:35:12.732Z,69238.19
2022-07-28T07:37:40.347Z,69247.88
2022-07-28T07:40:08.680Z,69269.59
2022-07-28T07:42:36.250Z,69303.47
2022-07-28T07:45:04.373Z,69309.91
2022-07-28T07:47:31.652Z,69312.94
2022-07-28T07:50:00.070Z,69342.03
2022-07-28T07:52:29.066Z,69355.16
2022-07-28T07:54:56.304Z,69353.69
2022-07-28T07:57:24.095Z,69347.34
2022-07-28T07:59:51.304Z,69350.19
2022-07-28T08:02:18.549Z,69350.44
2022-07-28T08:04:45.762Z,69351.16
2022-07-28T08:07:15.242Z,69376.13
2022-07-28T08:09:42.438Z,69396.28
2022-07-28T08:12:09.735Z,69430.53
2022-07-28T08:14:36.936Z,69444.78
2022-07-28T08:17:04.260Z,69459.09
2022-07-28T08:19:31.543Z,69490.19
2022-07-28T08:21:58.689Z,69483.84
2022-07-28T08:24:31.672Z,69495.91
2022-07-28T08:27:04.609Z,69467.66
2022-07-28T08:29:32.440Z,69446.34
2022-07-28T08:32:01.378Z,69444.22
2022-07-28T08:34:32.941Z,69478.34
2022-07-28T08:37:02.843Z,69480.25
2022-07-28T08:39:31.954Z,69512.41
2022-07-28T08:42:05.724Z,69511.66
2022-07-28T08:44:42.762Z,69544.63
2022-07-28T08:47:12.267Z,69537.34
2022-07-28T08:49:45.273Z,69562.91
2022-07-28T08:52:13.930Z,69567.91
2022-07-28T08:54:47.604Z,69598.19
2022-07-28T08:57:22.589Z,69603.50
2022-07-28T08:59:50.309Z,69615.66
2022-07-28T09:02:18.675Z,69631.09
2022-07-28T09:04:46.535Z,69621.94
2022-07-28T09:07:16.628Z,69632.41
2022-07-28T09:09:44.552Z,69622.13
2022-07-28T09:12:11.959Z,69625.94
2022-07-28T09:14:39.176Z,69635.66
2022-07-28T09:17:06.883Z,69648.41
2022-07-28T09:19:35.682Z,69666.56
2022-07-28T09:22:03.813Z,69667.13
2022-07-28T09:24:35.551Z,69647.28
2022-07-28T09:27:09.569Z,69635.66
2022-07-28T09:29:39.284Z,69685.28
2022-07-28T09:32:07.612Z,69687.72
2022-07-28T09:34:45.842Z,69708.91
2022-07-28T09:37:27.710Z,69702.03
2022-07-28T09:39:59.784Z,69693.59
2022-07-28T09:42:45.915Z,69686.19
2022-07-28T09:45:22.881Z,69666.56
2022-07-28T09:48:08.239Z,69696.47
2022-07-28T09:50:35.555Z,69688.06
2022-07-28T09:53:21.946Z,69718.06
2022-07-28T09:56:01.199Z,69744.94
2022-07-28T09:58:30.331Z,69765.97
2022-07-28T10:01:07.792Z,69769.97
2022-07-28T10:03:40.038Z,69799.16
2022-07-28T10:06:08.638Z,69786.72
2022-07-28T10:08:45.767Z,69788.03
2022-07-28T10:11:15.322Z,69767.25
2022-07-28T10:14:13.789Z,69764.25
2022-07-28T10:16:52.741Z,69728.91
2022-07-28T10:19:20.405Z,69750.41
2022-07-28T10:21:49.516Z,69781.56
2022-07-28T10:24:22.301Z,69780.41
2022-07-28T10:26:50.908Z,69772.25
2022-07-28T10:29:21.720Z,69799.88
2022-07-28T10:31:52.634Z,69813.59
2022-07-28T10:34:38.530Z,69808.47
2022-07-28T10:37:10.627Z,69795.16
2022-07-28T10:39:52.168Z,69749.53
2022-07-28T10:42:20.247Z,69741.53
2022-07-28T10:44:48.235Z,69763.97
2022-07-28T10:47:18.607Z,69814.91
2022-07-28T10:49:48.890Z,69819.91
2022-07-28T10:52:45.751Z,69805.34
2022-07-28T10:55:31.678Z,69854.84
2022-07-28T10:58:25.128Z,69867.44
2022-07-28T11:00:57.154Z,69867.84
2022-07-28T11:03:45.058Z,69867.44
2022-07-28T11:06:33.485Z,69873.16
2022-07-28T11:09:21.626Z,69892.78
2022-07-28T11:11:54.071Z,69901.38
2022-07-28T11:14:24.698Z,69927.72
2022-07-28T11:17:01.893Z,69935.03
2022-07-28T11:19:40.011Z,69948.78
2022-07-28T11:22:18.843Z,69966.53
2022-07-28T11:24:59.072Z,69963.09
2022-07-28T11:27:54.584Z,69947.19
2022-07-28T11:30:28.968Z,69921.28
2022-07-28T11:32:57.887Z,69936.88
2022-07-28T11:35:26.933Z,69939.59
2022-07-28T11:38:03.526Z,69935.03
2022-07-28T11:40:42.956Z,69908.34
2022-07-28T11:43:36.190Z,69918.56
2022-07-28T11:46:09.563Z,69924.13
2022-07-28T11:48:39.916Z,69911.94
2022-07-28T11:51:07.245Z,69931.16
2022-07-28T11:53:41.152Z,69928.16
2022-07-28T11:56:13.799Z,69913.97
2022-07-28T11:58:42.295Z,69905.63
2022-07-28T12:01:17.829Z,69916.53
2022-07-28T12:03:50.220Z,69920.13
2022-07-28T12:06:28.755Z,69905.41
2022-07-28T12:09:02.473Z,69910.41
2022-07-28T12:11:34.659Z,69910.41
2022-07-28T12:14:02.818Z,69917.84
2022-07-28T12:16:31.637Z,69912.69
2022-07-28T12:19:03.061Z,69914.69
2022-07-28T12:21:47.789Z,69944.59
2022-07-28T12:24:16.966Z,69943.75
2022-07-28T12:26:49.678Z,69939.75
2022-07-28T12:29:19.832Z,69948.78
2022-07-28T12:31:56.356Z,69946.63
2022-07-28T12:34:28.880Z,69935.75
2022-07-28T12:37:06.680Z,69961.78
2022-07-28T12:39:36.942Z,69977.81
2022-07-28T12:42:10.270Z,69987.88
2022-07-28T12:44:47.488Z,69975.84
2022-07-28T12:47:17.733Z,69981.41
2022-07-28T12:49:45.338Z,69983.13
2022-07-28T12:52:18.327Z,69956.78
2022-07-28T12:54:54.767Z,69932.72
2022-07-28T12:57:48.695Z,69959.22
2022-07-28T13:00:25.517Z,69986.03
2022-07-28T13:02:56.285Z,69982.72
2022-07-28T13:05:33.472Z,69975.84
2022-07-28T13:08:02.988Z,69953.75
2022-07-28T13:10:31.180Z,69960.06
2022-07-28T13:13:07.501Z,69972.81
2022-07-28T13:15:35.097Z,69981.41
2022-07-28T13:18:02.299Z,69967.22
2022-07-28T13:20:29.510Z,69975.09
2022-07-28T13:22:57.639Z,69983.13
2022-07-28T13:25:24.921Z,69993.44
2022-07-28T13:27:55.330Z,69999.34
2022-07-28T13:30:23.916Z,70025.81
2022-07-28T13:32:51.888Z,69979.84
2022-07-28T13:35:21.102Z,69961.50
2022-07-28T13:37:48.978Z,69971.09
2022-07-28T13:40:16.174Z,69986.72
2022-07-28T13:42:53.195Z,69990.75
2022-07-28T13:45:24.523Z,70008.91
2022-07-28T13:47:53.412Z,69996.88
2022-07-28T13:50:21.009Z,69985.59
2022-07-28T13:52:48.622Z,69979.69
2022-07-28T13:55:17.817Z,70002.06
2022-07-28T13:57:50.302Z,70027.97
2022-07-28T14:00:19.496Z,70023.41
2022-07-28T14:02:50.387Z,70012.94
2022-07-28T14:05:17.836Z,69997.16
2022-07-28T14:07:48.341Z,70010.22
2022-07-28T14:10:17.911Z,70032.25
2022-07-28T14:12:46.184Z,70015.94
2022-07-28T14:15:14.432Z,70043.44
2022-07-28T14:17:43.254Z,70043.31
2022-07-28T14:20:16.213Z,70037.00
2022-07-28T14:22:44.589Z,70014.22
2022-07-28T14:25:21.188Z,70028.41
2022-07-28T14:27:50.207Z,69996.88
2022-07-28T14:30:18.955Z,69978.13
2022-07-28T14:32:46.472Z,69983.31
2022-07-28T14:35:13.879Z,69982.16
2022-07-28T14:38:15.752Z,69991.00
2022-07-28T14:40:28.350Z,70007.78
2022-07-28T14:42:55.422Z,70005.72
2022-07-28T14:45:22.715Z,70035.44
2022-07-28T14:47:50.444Z,70017.94
2022-07-28T14:50:18.081Z,69987.72
2022-07-28T14:52:45.355Z,69985.09
2022-07-28T14:55:13.584Z,69965.38
2022-07-28T14:57:52.083Z,69977.41
2022-07-28T15:00:23.508Z,69979.28
2022-07-28T15:02:52.792Z,69987.72
2022-07-28T15:05:21.573Z,69986.03
2022-07-28T15:07:49.532Z,69977.25
2022-07-28T15:10:17.008Z,69944.34
2022-07-28T15:12:44.879Z,69947.06
2022-07-28T15:15:13.067Z,69945.91
2022-07-28T15:17:40.672Z,69969.53
2022-07-28T15:20:10.554Z,69990.44
2022-07-28T15:22:37.813Z,70015.94
2022-07-28T15:25:06.213Z,70009.91
2022-07-28T15:27:34.714Z,70006.81
2022-07-28T15:30:03.043Z,69986.84
2022-07-28T15:32:33.442Z,69994.59
2022-07-28T15:35:00.748Z,69980.41
2022-07-28T15:37:28.301Z,69982.00
2022-07-28T15:39:55.691Z,69963.09
2022-07-28T15:42:22.995Z,69948.03
2022-07-28T15:44:52.085Z,69938.44
2022-07-28T15:47:19.358Z,69947.47
2022-07-28T15:49:46.694Z,69944.03
2022-07-28T15:52:14.626Z,69948.78
2022-07-28T15:54:42.161Z,69938.44
2022-07-28T15:57:09.419Z,69932.72
2022-07-28T15:59:50.200Z,69943.59
2022-07-28T16:02:19.416Z,69928.16
2022-07-28T16:04:52.265Z,69927.72
2022-07-28T16:07:28.000Z,69938.63
2022-07-28T16:09:55.874Z,69946.72
2022-07-28T16:12:25.212Z,69959.63
2022-07-28T16:14:55.936Z,69963.09
2022-07-28T16:17:24.258Z,69947.63
2022-07-28T16:19:52.264Z,69943.19
2022-07-28T16:22:20.677Z,69940.72
2022-07-28T16:24:51.067Z,69936.88
2022-07-28T16:27:18.414Z,69936.31
2022-07-28T16:29:46.100Z,69924.69
2022-07-28T16:32:13.331Z,69932.00
2022-07-28T16:34:40.545Z,69935.75
2022-07-28T16:37:07.915Z,69931.41
2022-07-28T16:39:35.454Z,69916.69
2022-07-28T16:42:03.219Z,69902.34
2022-07-28T16:44:30.835Z,69886.34
2022-07-28T16:46:58.564Z,69893.59
2022-07-28T16:49:28.094Z,69895.47
2022-07-28T16:51:56.452Z,69898.34
2022-07-28T16:54:24.183Z,69874.28
2022-07-28T16:56:51.529Z,69865.16
2022-07-28T16:59:18.863Z,69859.00
2022-07-28T17:01:46.858Z,69858.84
2022-07-28T17:04:16.570Z,69860.41
2022-07-28T17:06:44.898Z,69853.13
2022-07-28T17:09:13.034Z,69855.25
2022-07-28T17:11:42.171Z,69860.56
2022-07-28T17:14:10.852Z,69860.41
2022-07-28T17:16:38.183Z,69840.94
2022-07-28T17:19:05.558Z,69822.75
2022-07-28T17:21:32.835Z,69812.88
2022-07-28T17:24:00.287Z,69796.03
2022-07-28T17:27:32.483Z,69791.13
2022-07-28T17:29:16.638Z,69790.13
2022-07-28T17:31:44.207Z,69792.44
2022-07-28T17:34:12.171Z,69789.41
2022-07-28T17:36:42.002Z,69774.72
2022-07-28T17:39:09.547Z,69773.56
2022-07-28T17:41:36.886Z,69777.81
2022-07-28T17:44:04.740Z,69768.81
2022-07-28T17:46:34.993Z,69755.25
2022-07-28T17:49:03.098Z,69751.81
2022-07-28T17:51:30.878Z,69755.09
2022-07-28T17:53:58.150Z,69748.22
2022-07-28T17:56:26.171Z,69748.22
2022-07-28T17:58:53.527Z,69753.94
2022-07-28T18:01:20.984Z,69742.72
2022-07-28T18:03:59.190Z,69709.19
2022-07-28T18:06:34.938Z,69731.44
2022-07-28T18:09:07.519Z,69722.63
2022-07-28T18:11:55.552Z,69714.44
2022-07-28T18:14:27.342Z,69702.59
2022-07-28T18:16:54.852Z,69703.19
2022-07-28T18:19:22.422Z,69697.44
2022-07-28T18:21:49.905Z,69708.00
2022-07-28T18:24:18.817Z,69704.88
2022-07-28T18:26:46.305Z,69692.16
2022-07-28T18:29:14.878Z,69689.44
2022-07-28T18:31:46.399Z,69678.56
2022-07-28T18:34:15.041Z,69677.84
2022-07-28T18:36:43.311Z,69676.38
2022-07-28T18:39:10.971Z,69645.97
2022-07-28T18:41:46.958Z,69644.25
2022-07-28T18:44:18.855Z,69625.94
2022-07-28T18:46:47.114Z,69617.94
2022-07-28T18:49:15.365Z,69608.22
2022-07-28T18:51:45.019Z,69590.09
2022-07-28T18:54:18.598Z,69590.78
2022-07-28T18:56:49.482Z,69574.38
2022-07-28T18:59:17.273Z,69566.53
2022-07-28T19:01:44.856Z,69560.22
2022-07-28T19:04:12.269Z,69549.19
2022-07-28T19:06:40.691Z,69547.47
2022-07-28T19:09:10.518Z,69525.03
2022-07-28T19:11:41.172Z,69513.94
2022-07-28T19:14:12.299Z,69531.09
2022-07-28T19:16:39.761Z,69517.78
2022-07-28T19:19:07.023Z,69501.94
2022-07-28T19:21:34.944Z,69504.44
2022-07-28T19:24:02.420Z,69498.34
2022-07-28T19:26:30.102Z,69493.63
2022-07-28T19:28:57.846Z,69487.91
2022-07-28T19:31:25.920Z,69479.31
2022-07-28T19:33:53.519Z,69466.91
2022-07-28T19:36:22.447Z,69461.78
2022-07-28T19:38:49.791Z,69449.38
2022-07-28T19:41:17.204Z,69440.06
2022-07-28T19:43:44.885Z,69433.22
2022-07-28T19:46:12.193Z,69419.69
2022-07-28T19:48:39.793Z,69419.91
2022-07-28T19:51:07.212Z,69416.81
2022-07-28T19:53:35.875Z,69412.69
2022-07-28T19:56:09.042Z,69414.22
2022-07-28T19:58:36.766Z,69408.09
2022-07-28T20:01:05.581Z,69394.56
2022-07-28T20:04:03.349Z,69405.66
2022-07-28T20:06:24.816Z,69386.00
2022-07-28T20:08:54.152Z,69371.72
2022-07-28T20:11:21.594Z,69373.28
2022-07-28T20:13:49.684Z,69372.28
2022-07-28T20:16:18.235Z,69369.84
2022-07-28T20:18:45.500Z,69362.22
2022-07-28T20:21:12.818Z,69344.72
2022-07-28T20:23:41.084Z,69347.97
2022-07-28T20:26:10.066Z,69333.47
2022-07-28T20:28:38.086Z,69323.94
2022-07-28T20:31:07.440Z,69319.78
2022-07-28T20:33:34.856Z,69313.34
2022-07-28T20:36:02.748Z,69311.03
2022-07-28T20:38:29.960Z,69306.09
2022-07-28T20:40:57.206Z,69293.94
2022-07-28T20:43:24.382Z,69292.22
2022-07-28T20:46:05.222Z,69287.50
2022-07-28T20:48:32.748Z,69275.69
2022-07-28T20:51:00.299Z,69271.88
2022-07-28T20:53:27.619Z,69264.81
2022-07-28T20:55:55.092Z,69251.69
2022-07-28T20:58:22.538Z,69256.66
2022-07-28T21:00:51.187Z,69242.97
2022-07-28T21:03:19.072Z,69241.03
2022-07-28T21:05:46.183Z,69237.28
2022-07-28T21:08:16.980Z,69232.47
2022-07-28T21:10:44.896Z,69226.78
2022-07-28T21:13:12.150Z,69229.47
2022-07-28T21:15:39.482Z,69231.16
2022-07-28T21:18:06.733Z,69220.50
2022-07-28T21:20:34.209Z,69223.59
2022-07-28T21:23:01.333Z,69197.72
2022-07-28T21:25:32.067Z,69190.13
2022-07-28T21:28:18.216Z,69180.41
2022-07-28T21:30:46.014Z,69179.84
2022-07-28T21:33:13.501Z,69184.25
2022-07-28T21:35:50.068Z,69188.81
2022-07-28T21:38:17.307Z,69183.84
2022-07-28T21:40:44.591Z,69182.88
2022-07-28T21:43:11.763Z,69175.31
2022-07-28T21:45:39.250Z,69176.63
2022-07-28T21:48:06.738Z,69166.53
2022-07-28T21:50:36.413Z,69162.56
2022-07-28T21:53:04.387Z,69166.00
2022-07-28T21:55:31.566Z,69155.31
2022-07-28T21:57:58.892Z,69154.59
2022-07-28T22:00:26.338Z,69157.78
2022-07-28T22:02:53.526Z,69143.34
2022-07-28T22:05:21.451Z,69128.94
2022-07-28T22:07:49.085Z,69106.69
2022-07-28T22:10:17.522Z,69098.16
2022-07-28T22:12:45.563Z,69090.19
2022-07-28T22:15:12.826Z,69087.53
2022-07-28T22:17:40.308Z,69080.50
2022-07-28T22:20:08.720Z,69071.38
2022-07-28T22:22:36.210Z,69069.09
2022-07-28T22:25:04.435Z,69052.53
2022-07-28T22:27:31.741Z,69050.47
2022-07-28T22:29:59.242Z,69063.41
2022-07-28T22:32:29.063Z,69049.50
2022-07-28T22:34:59.789Z,69060.94
2022-07-28T22:37:27.023Z,69051.06
2022-07-28T22:39:54.796Z,69051.44
2022-07-28T22:42:22.328Z,69049.31
2022-07-28T22:44:49.704Z,69041.91
2022-07-28T22:47:16.943Z,69029.41
2022-07-28T22:49:44.310Z,69024.44
2022-07-28T22:52:11.617Z,69036.63
2022-07-28T22:54:39.999Z,69028.81
2022-07-28T22:57:07.380Z,69016.84
2022-07-28T22:59:35.678Z,69033.78
2022-07-28T23:02:07.124Z,69047.78
2022-07-28T23:04:34.376Z,69056.56
2022-07-28T23:07:01.659Z,69052.00
2022-07-28T23:09:29.017Z,69060.00
2022-07-28T23:11:56.407Z,69065.69
2022-07-28T23:14:23.770Z,69060.19
2022-07-28T23:16:51.696Z,69041.91
2022-07-28T23:19:18.896Z,69040.59
2022-07-28T23:21:46.220Z,69048.16
2022-07-28T23:24:13.783Z,69054.66
2022-07-28T23:26:41.432Z,69044.59
2022-07-28T23:29:08.955Z,69045.53
2022-07-28T23:31:36.226Z,69042.09
2022-07-28T23:34:03.610Z,69057.72
2022-07-28T23:36:30.901Z,69065.13
2022-07-28T23:38:59.103Z,69079.53
2022-07-28T23:41:28.451Z,69086.78
2022-07-28T23:43:55.686Z,69093.78
2022-07-28T23:46:23.022Z,69103.88
2022-07-28T23:48:51.043Z,69085.97
2022-07-28T23:51:18.466Z,69095.50
2022-07-28T23:53:45.778Z,69081.97
2022-07-28T23:56:13.767Z,69093.03
2022-07-28T23:58:41.362Z,69096.63
